createdAt,value
2017-12-25T00:01:25.207Z,19.75
2017-12-25T00:03:52.110Z,19.33
2017-12-25T00:06:18.955Z,17.98
2017-12-25T00:08:45.818Z,20.12
2017-12-25T00:11:12.654Z,17.75
2017-12-25T00:13:39.558Z,17.62
2017-12-25T00:16:06.398Z,24.30
2017-12-25T00:18:33.226Z,16.12
2017-12-25T00:21:00.099Z,20.62
2017-12-25T00:23:26.970Z,19.08
2017-12-25T00:25:54.606Z,17.23
2017-12-25T00:28:22.209Z,24.23
2017-12-25T00:30:49.094Z,22.27
2017-12-25T00:33:15.944Z,25.27
2017-12-25T00:35:43.540Z,19.27
2017-12-25T00:38:10.390Z,22.77
2017-12-25T00:40:37.265Z,21.67
2017-12-25T00:43:04.107Z,26.48
2017-12-25T00:45:30.988Z,22.73
2017-12-25T00:47:58.603Z,20.02
2017-12-25T00:50:25.522Z,25.20
2017-12-25T00:52:53.106Z,23.25
2017-12-25T00:55:19.933Z,23.77
2017-12-25T00:57:46.799Z,22.90
2017-12-25T01:00:13.666Z,28.38
2017-12-25T01:02:40.525Z,23.25
2017-12-25T01:05:07.394Z,23.05
2017-12-25T01:07:34.250Z,24.37
2017-12-25T01:10:01.075Z,24.87
2017-12-25T01:12:28.714Z,19.75
2017-12-25T01:14:55.568Z,27.52
2017-12-25T01:17:22.407Z,26.15
2017-12-25T01:19:49.255Z,19.25
2017-12-25T01:22:16.876Z,22.25
2017-12-25T01:24:43.702Z,24.90
2017-12-25T01:27:10.573Z,25.85
2017-12-25T01:29:37.425Z,21.95
2017-12-25T01:32:04.251Z,20.70
2017-12-25T01:34:31.102Z,17.73
2017-12-25T01:36:57.934Z,17.92
2017-12-25T01:39:24.753Z,13.30
2017-12-25T01:41:51.630Z,14.87
2017-12-25T01:44:18.487Z,15.23
2017-12-25T01:46:57.600Z,16.90
2017-12-25T01:49:24.425Z,16.98
2017-12-25T01:51:51.306Z,23.87
2017-12-25T01:54:18.266Z,22.48
2017-12-25T01:56:45.908Z,17.60
2017-12-25T01:59:13.779Z,20.90
2017-12-25T02:01:46.760Z,20.00
2017-12-25T02:04:15.501Z,16.60
2017-12-25T02:09:39.462Z,15.05
2017-12-25T02:12:07.123Z,15.07
2017-12-25T02:14:34.766Z,15.85
2017-12-25T02:17:01.638Z,16.85
2017-12-25T02:19:28.496Z,14.13
2017-12-25T02:21:56.509Z,11.38
2017-12-25T02:24:23.362Z,12.90
2017-12-25T02:26:50.238Z,14.85
2017-12-25T02:29:17.890Z,12.07
2017-12-25T02:31:44.767Z,12.23
2017-12-25T02:34:11.638Z,14.93
2017-12-25T02:36:38.546Z,12.02
2017-12-25T02:39:05.686Z,12.75
2017-12-25T02:41:32.563Z,13.27
2017-12-25T02:43:59.434Z,13.10
2017-12-25T02:46:26.274Z,16.10
2017-12-25T02:48:53.118Z,10.38
2017-12-25T02:51:19.984Z,12.95
2017-12-25T02:53:46.862Z,11.60
2017-12-25T02:56:13.730Z,13.18
2017-12-25T02:58:40.594Z,11.93
2017-12-25T03:01:07.442Z,14.02
2017-12-25T03:03:34.323Z,14.15
2017-12-25T03:06:01.275Z,11.10
2017-12-25T03:08:28.106Z,11.82
2017-12-25T03:10:55.748Z,8.77
2017-12-25T03:13:22.666Z,9.48
2017-12-25T03:15:49.554Z,9.30
2017-12-25T03:18:16.458Z,11.40
2017-12-25T03:20:43.310Z,7.53
2017-12-25T03:23:10.142Z,6.85
2017-12-25T03:25:37.049Z,5.78
2017-12-25T03:28:03.916Z,7.75
2017-12-25T03:30:30.826Z,7.25
2017-12-25T03:32:57.698Z,9.25
2017-12-25T03:35:24.565Z,6.80
2017-12-25T03:37:51.454Z,8.75
2017-12-25T03:40:18.317Z,6.62
2017-12-25T03:42:45.163Z,6.47
2017-12-25T03:45:12.051Z,8.27
2017-12-25T03:47:38.894Z,9.35
2017-12-25T03:50:05.777Z,7.12
2017-12-25T03:52:32.669Z,4.82
2017-12-25T03:54:59.478Z,4.70
2017-12-25T03:57:26.355Z,5.40
2017-12-25T03:59:53.212Z,6.15
2017-12-25T04:02:20.055Z,5.15
2017-12-25T04:04:47.682Z,5.75
2017-12-25T04:07:14.535Z,3.78
2017-12-25T04:09:41.401Z,4.65
2017-12-25T04:12:08.294Z,6.90
2017-12-25T04:14:35.173Z,5.55
2017-12-25T04:17:02.046Z,5.28
2017-12-25T04:19:28.923Z,4.95
2017-12-25T04:21:55.846Z,7.40
2017-12-25T04:24:22.713Z,5.62
2017-12-25T04:26:49.538Z,7.12
2017-12-25T04:29:16.418Z,5.20
2017-12-25T04:31:44.275Z,6.68
2017-12-25T04:34:11.152Z,5.40
2017-12-25T04:36:38.027Z,5.22
2017-12-25T04:39:04.889Z,6.80
2017-12-25T04:41:31.757Z,9.02
2017-12-25T04:43:58.630Z,7.50
2017-12-25T04:46:26.254Z,6.97
2017-12-25T04:48:53.098Z,6.57
2017-12-25T04:51:21.062Z,5.85
2017-12-25T04:53:47.878Z,5.75
2017-12-25T04:56:14.720Z,8.02
2017-12-25T04:58:41.591Z,5.20
2017-12-25T05:01:08.447Z,6.30
2017-12-25T05:03:35.306Z,5.93
2017-12-25T05:06:02.159Z,4.70
2017-12-25T05:08:29.048Z,7.28
2017-12-25T05:10:57.686Z,6.15
2017-12-25T05:13:24.575Z,6.53
2017-12-25T05:15:51.534Z,6.87
2017-12-25T05:18:18.386Z,7.75
2017-12-25T05:20:45.275Z,6.40
2017-12-25T05:23:12.877Z,9.48
2017-12-25T05:25:39.722Z,10.90
2017-12-25T05:28:06.601Z,8.32
2017-12-25T05:30:33.495Z,11.02
2017-12-25T05:33:00.323Z,9.98
2017-12-25T05:35:27.173Z,12.60
2017-12-25T05:37:54.077Z,10.40
2017-12-25T05:40:20.942Z,12.00
2017-12-25T05:42:48.786Z,9.95
2017-12-25T05:45:15.653Z,10.93
2017-12-25T05:47:42.528Z,11.63
2017-12-25T05:50:09.363Z,11.50
2017-12-25T05:52:36.227Z,13.25
2017-12-25T05:55:03.102Z,13.35
2017-12-25T05:57:29.954Z,13.15
2017-12-25T05:59:56.885Z,11.00
2017-12-25T06:02:23.742Z,13.77
2017-12-25T06:04:50.620Z,11.85
2017-12-25T06:07:17.491Z,11.07
2017-12-25T06:09:44.333Z,12.25
2017-12-25T06:12:11.208Z,13.05
2017-12-25T06:14:38.126Z,11.48
2017-12-25T06:17:05.790Z,14.50
2017-12-25T06:19:32.699Z,11.55
2017-12-25T06:21:59.622Z,12.60
2017-12-25T06:24:26.486Z,12.40
2017-12-25T06:26:54.328Z,11.12
2017-12-25T06:29:21.939Z,12.68
2017-12-25T06:31:48.843Z,12.27
2017-12-25T06:34:16.422Z,13.55
2017-12-25T06:36:43.270Z,16.90
2017-12-25T06:39:10.155Z,15.10
2017-12-25T06:41:37.006Z,17.90
2017-12-25T06:44:03.859Z,16.23
2017-12-25T06:46:30.714Z,14.30
2017-12-25T06:48:57.550Z,14.85
2017-12-25T06:51:26.364Z,16.05
2017-12-25T06:53:53.246Z,20.77
2017-12-25T06:56:20.116Z,20.65
2017-12-25T06:58:47.211Z,17.23
2017-12-25T07:01:14.091Z,18.15
2017-12-25T07:03:41.392Z,20.42
2017-12-25T07:06:09.011Z,18.05
2017-12-25T07:08:36.613Z,18.87
2017-12-25T07:11:04.202Z,22.45
2017-12-25T07:13:31.047Z,24.02
2017-12-25T07:15:57.922Z,18.30
2017-12-25T07:18:24.734Z,24.87
2017-12-25T07:20:51.605Z,18.75
2017-12-25T07:23:18.492Z,20.90
2017-12-25T07:25:45.347Z,19.75
2017-12-25T07:28:12.214Z,22.33
2017-12-25T07:30:39.121Z,21.02
2017-12-25T07:33:06.048Z,21.62
2017-12-25T07:35:32.979Z,21.20
2017-12-25T07:37:59.870Z,21.42
2017-12-25T07:40:28.183Z,19.70
2017-12-25T07:42:55.639Z,21.92
2017-12-25T07:45:22.487Z,21.20
2017-12-25T07:47:49.379Z,18.98
2017-12-25T07:50:16.251Z,22.45
2017-12-25T07:52:43.127Z,20.42
2017-12-25T07:55:10.004Z,18.67
2017-12-25T07:57:36.867Z,23.25
2017-12-25T08:00:03.713Z,24.90
2017-12-25T08:02:31.364Z,23.05
2017-12-25T08:04:58.271Z,21.73
2017-12-25T08:07:25.426Z,25.92
2017-12-25T08:09:52.336Z,27.00
2017-12-25T08:12:19.194Z,20.92
2017-12-25T08:14:46.078Z,27.67
2017-12-25T08:17:13.647Z,24.83
2017-12-25T08:19:40.490Z,33.30
2017-12-25T08:22:07.355Z,26.80
2017-12-25T08:24:34.164Z,26.23
2017-12-25T08:27:01.023Z,24.10
2017-12-25T08:29:27.871Z,19.67
2017-12-25T08:31:54.823Z,20.75
2017-12-25T08:34:21.679Z,21.77
2017-12-25T08:36:48.790Z,17.87
2017-12-25T08:39:15.766Z,19.33
2017-12-25T08:41:42.704Z,15.77
2017-12-25T08:44:09.615Z,20.23
2017-12-25T08:46:37.195Z,21.15
2017-12-25T08:49:04.368Z,20.52
2017-12-25T08:51:31.323Z,19.42
2017-12-25T08:53:59.187Z,21.45
2017-12-25T08:56:26.228Z,19.55
2017-12-25T08:58:53.103Z,24.02
2017-12-25T09:01:19.982Z,19.15
2017-12-25T09:03:47.591Z,19.27
2017-12-25T09:06:14.497Z,21.42
2017-12-25T09:08:42.199Z,20.08
2017-12-25T09:11:09.274Z,20.60
2017-12-25T09:13:37.059Z,17.30
2017-12-25T09:16:04.704Z,20.02
2017-12-25T09:18:31.572Z,19.27
2017-12-25T09:20:58.492Z,20.50
2017-12-25T09:23:26.147Z,19.10
2017-12-25T09:25:53.031Z,22.35
2017-12-25T09:28:19.878Z,21.02
2017-12-25T09:30:46.755Z,23.08
2017-12-25T09:33:13.625Z,21.15
2017-12-25T09:35:40.487Z,21.33
2017-12-25T09:38:07.351Z,21.85
2017-12-25T09:40:34.512Z,21.73
2017-12-25T09:43:02.195Z,23.58
2017-12-25T09:45:29.050Z,25.50
2017-12-25T09:47:56.939Z,22.85
2017-12-25T09:50:23.851Z,19.23
2017-12-25T09:52:50.879Z,24.05
2017-12-25T09:55:17.740Z,20.08
2017-12-25T09:57:44.560Z,19.77
2017-12-25T10:00:11.648Z,20.62
2017-12-25T10:02:38.564Z,22.67
2017-12-25T10:05:05.464Z,19.08
2017-12-25T10:07:33.478Z,20.00
2017-12-25T10:10:01.422Z,21.12
2017-12-25T10:12:28.511Z,17.08
2017-12-25T10:14:55.583Z,21.23
2017-12-25T10:17:23.187Z,21.75
2017-12-25T10:19:50.145Z,19.60
2017-12-25T10:22:17.267Z,20.40
2017-12-25T10:24:44.210Z,18.15
2017-12-25T10:27:11.135Z,21.92
2017-12-25T10:29:38.038Z,17.50
2017-12-25T10:32:04.898Z,16.40
2017-12-25T10:34:31.742Z,16.33
2017-12-25T10:36:58.763Z,17.87
2017-12-25T10:39:25.740Z,16.70
2017-12-25T10:41:53.385Z,18.57
2017-12-25T10:44:20.442Z,17.60
2017-12-25T10:46:47.421Z,17.33
2017-12-25T10:49:16.154Z,18.37
2017-12-25T10:51:43.179Z,17.77
2017-12-25T10:54:10.094Z,16.90
2017-12-25T10:56:36.938Z,17.50
2017-12-25T10:59:04.947Z,19.00
2017-12-25T11:01:32.076Z,18.80
2017-12-25T11:03:58.975Z,17.20
2017-12-25T11:06:26.019Z,15.87
2017-12-25T11:08:53.051Z,18.47
2017-12-25T11:11:20.780Z,18.77
2017-12-25T11:13:47.875Z,18.30
2017-12-25T11:16:14.793Z,19.67
2017-12-25T11:18:42.428Z,17.87
2017-12-25T11:21:09.403Z,18.47
2017-12-25T11:23:36.330Z,18.90
2017-12-25T11:26:03.377Z,17.90
2017-12-25T11:28:30.395Z,20.37
2017-12-25T11:30:58.015Z,18.67
2017-12-25T11:33:24.923Z,19.23
2017-12-25T11:35:51.827Z,18.23
2017-12-25T11:38:18.670Z,19.30
2017-12-25T11:40:46.550Z,20.13
2017-12-25T11:43:13.527Z,21.13
2017-12-25T11:45:40.634Z,21.70
2017-12-25T11:48:07.552Z,19.90
2017-12-25T11:50:34.386Z,19.30
2017-12-25T11:53:01.238Z,18.70
2017-12-25T11:55:28.459Z,18.90
2017-12-25T11:57:55.359Z,16.97
2017-12-25T12:00:23.145Z,19.27
2017-12-25T12:02:50.898Z,18.60
2017-12-25T12:05:17.983Z,18.00
2017-12-25T12:07:45.690Z,17.10
2017-12-25T12:10:12.543Z,17.50
2017-12-25T12:12:40.163Z,19.07
2017-12-25T12:15:07.288Z,16.47
2017-12-25T12:17:34.326Z,17.30
2017-12-25T12:20:01.899Z,15.63
2017-12-25T12:22:28.779Z,17.23
2017-12-25T12:24:55.635Z,17.13
2017-12-25T12:27:23.261Z,16.57
2017-12-25T12:29:50.090Z,16.50
2017-12-25T12:32:16.935Z,15.20
2017-12-25T12:34:43.778Z,15.93
2017-12-25T12:37:10.696Z,15.20
2017-12-25T12:39:38.282Z,18.47
2017-12-25T12:42:05.170Z,16.33
2017-12-25T12:44:32.044Z,16.33
2017-12-25T12:46:59.199Z,18.20
2017-12-25T12:49:26.074Z,17.00
2017-12-25T12:51:52.964Z,18.53
2017-12-25T12:54:20.754Z,16.17
2017-12-25T12:56:47.761Z,16.27
2017-12-25T12:59:14.913Z,17.40
2017-12-25T13:01:42.045Z,16.30
2017-12-25T13:04:09.114Z,15.77
2017-12-25T13:06:37.067Z,18.03
2017-12-25T13:09:03.943Z,19.67
2017-12-25T13:11:30.826Z,17.57
2017-12-25T13:13:57.851Z,18.43
2017-12-25T13:16:25.783Z,16.87
2017-12-25T13:18:53.426Z,19.17
2017-12-25T13:21:20.586Z,18.70
2017-12-25T13:23:48.566Z,19.07
2017-12-25T13:26:15.399Z,20.03
2017-12-25T13:28:43.210Z,19.20
2017-12-25T13:31:10.511Z,18.00
2017-12-25T13:33:37.370Z,19.53
2017-12-25T13:36:04.347Z,20.30
2017-12-25T13:38:31.198Z,18.07
2017-12-25T13:40:58.238Z,19.53
2017-12-25T13:43:25.422Z,19.90
2017-12-25T13:45:52.690Z,18.70
2017-12-25T13:48:20.486Z,18.87
2017-12-25T13:50:48.371Z,18.33
2017-12-25T13:53:15.446Z,19.40
2017-12-25T13:55:42.406Z,18.63
2017-12-25T13:58:09.455Z,18.80
2017-12-25T14:00:36.546Z,20.17
2017-12-25T14:03:03.486Z,18.57
2017-12-25T14:05:30.715Z,18.33
2017-12-25T14:07:57.694Z,18.57
2017-12-25T14:10:24.711Z,18.20
2017-12-25T14:12:51.720Z,20.87
2017-12-25T14:15:19.387Z,20.97
2017-12-25T14:17:54.295Z,20.50
2017-12-25T14:36:54.882Z,16.33
2017-12-25T14:39:21.772Z,17.83
2017-12-25T14:41:48.858Z,19.03
2017-12-25T14:44:15.718Z,19.53
2017-12-25T14:46:42.611Z,17.20
2017-12-25T14:49:09.783Z,16.90
2017-12-25T14:51:36.753Z,17.37
2017-12-25T14:54:03.615Z,18.20
2017-12-25T14:56:30.638Z,18.10
2017-12-25T14:58:57.623Z,18.20
2017-12-25T15:01:25.218Z,18.17
2017-12-25T15:03:52.470Z,18.98
2017-12-25T15:06:19.479Z,20.05
2017-12-25T15:08:46.490Z,17.55
2017-12-25T15:11:13.483Z,17.87
2017-12-25T15:13:40.457Z,19.70
2017-12-25T15:16:07.515Z,18.65
2017-12-25T15:18:34.584Z,20.95
2017-12-25T15:21:02.218Z,20.37
2017-12-25T15:23:29.302Z,21.40
2017-12-25T15:25:57.104Z,21.27
2017-12-25T15:28:24.843Z,20.40
2017-12-25T15:30:51.806Z,23.25
2017-12-25T15:33:19.613Z,22.58
2017-12-25T15:35:46.609Z,29.70
2017-12-25T15:38:13.507Z,33.35
2017-12-25T15:40:40.643Z,30.45
2017-12-25T15:43:07.721Z,31.80
2017-12-25T15:45:35.474Z,31.15
2017-12-25T15:48:02.408Z,27.65
2017-12-25T15:50:29.603Z,32.55
2017-12-25T15:52:56.626Z,29.52
2017-12-25T15:55:23.539Z,28.85
2017-12-25T15:57:50.432Z,33.22
2017-12-25T16:00:18.082Z,48.28
2017-12-25T16:02:45.192Z,52.55
2017-12-25T16:05:12.189Z,48.25
2017-12-25T16:07:39.155Z,44.33
2017-12-25T16:10:06.883Z,46.70
2017-12-25T16:12:33.991Z,43.75
2017-12-25T16:15:01.607Z,45.08
2017-12-25T16:17:29.360Z,39.00
2017-12-25T16:19:56.603Z,37.03
2017-12-25T16:22:23.522Z,39.55
2017-12-25T16:24:50.490Z,37.40
2017-12-25T16:27:17.639Z,33.42
2017-12-25T16:29:44.600Z,35.83
2017-12-25T16:32:11.716Z,36.38
2017-12-25T16:34:38.606Z,38.85
2017-12-25T16:37:05.476Z,41.67
2017-12-25T16:39:33.598Z,39.22
2017-12-25T16:42:03.815Z,34.60
2017-12-25T16:44:31.551Z,41.22
2017-12-25T16:46:58.528Z,46.37
2017-12-25T16:49:26.372Z,49.50
2017-12-25T16:51:54.247Z,36.63
2017-12-25T16:54:21.247Z,42.88
2017-12-25T16:56:48.834Z,38.85
2017-12-25T16:59:15.843Z,45.90
2017-12-25T17:01:42.868Z,38.28
2017-12-25T17:04:09.774Z,50.75
2017-12-25T17:06:37.599Z,44.88
2017-12-25T17:09:05.505Z,45.53
2017-12-25T17:11:32.822Z,47.42
2017-12-25T17:14:10.972Z,48.20
2017-12-25T17:31:37.559Z,53.97
2017-12-25T17:34:04.479Z,51.13
2017-12-25T17:36:48.415Z,49.75
2017-12-25T17:39:39.688Z,45.38
2017-12-25T17:42:07.392Z,48.03
2017-12-25T17:44:34.368Z,42.97
2017-12-25T17:47:02.174Z,49.05
2017-12-25T17:49:29.867Z,44.05
2017-12-25T17:51:56.735Z,46.90
2017-12-25T17:54:23.627Z,45.80
2017-12-25T17:56:50.782Z,45.38
2017-12-25T17:59:17.878Z,50.28
2017-12-25T18:01:44.738Z,49.35
2017-12-25T18:04:11.923Z,48.13
2017-12-25T18:06:39.899Z,44.88
2017-12-25T18:09:06.754Z,42.83
2017-12-25T18:11:33.990Z,42.88
2017-12-25T18:14:02.045Z,46.33
2017-12-25T18:16:29.335Z,47.50
2017-12-25T18:18:56.315Z,47.47
2017-12-25T18:21:24.226Z,44.55
2017-12-25T18:23:52.087Z,44.60
2017-12-25T18:26:19.039Z,47.58
2017-12-25T18:28:48.078Z,44.67
2017-12-25T18:31:16.026Z,46.30
2017-12-25T18:33:42.989Z,43.50
2017-12-25T18:36:10.546Z,47.13
2017-12-25T18:38:37.535Z,52.90
2017-12-25T18:41:05.182Z,56.70
2017-12-25T18:43:33.079Z,51.30
2017-12-25T18:46:00.938Z,54.28
2017-12-25T18:48:27.952Z,45.80
2017-12-25T18:50:55.651Z,49.55
2017-12-25T18:53:22.728Z,44.45
2017-12-25T18:55:49.788Z,43.87
2017-12-25T18:58:17.531Z,53.75
2017-12-25T19:00:45.239Z,44.35
2017-12-25T19:03:12.842Z,47.15
2017-12-25T19:05:39.699Z,46.78
2017-12-25T19:08:06.722Z,39.13
2017-12-25T19:10:33.660Z,43.72
2017-12-25T19:13:01.437Z,37.20
2017-12-25T19:15:28.398Z,44.50
2017-12-25T19:17:55.287Z,41.15
2017-12-25T19:20:22.902Z,40.67
2017-12-25T19:22:49.808Z,40.28
2017-12-25T19:25:16.965Z,39.13
2017-12-25T19:27:43.863Z,43.30
2017-12-25T19:30:11.746Z,38.65
2017-12-25T19:32:38.650Z,44.83
2017-12-25T19:35:05.499Z,44.55
2017-12-25T19:37:32.654Z,38.95
2017-12-25T19:39:59.555Z,39.63
2017-12-25T19:42:26.612Z,41.10
2017-12-25T19:44:54.414Z,48.95
2017-12-25T19:47:21.326Z,46.80
2017-12-25T19:49:49.340Z,51.37
2017-12-25T19:52:17.682Z,49.15
2017-12-25T19:54:44.711Z,50.63
2017-12-25T19:57:11.779Z,48.38
2017-12-25T19:59:39.398Z,49.53
2017-12-25T20:02:06.403Z,42.25
2017-12-25T20:04:33.379Z,45.60
2017-12-25T20:07:00.415Z,44.58
2017-12-25T20:09:27.546Z,39.45
2017-12-25T20:11:54.456Z,41.33
2017-12-25T20:14:22.151Z,36.97
2017-12-25T20:16:49.190Z,35.55
2017-12-25T20:19:20.067Z,30.70
2017-12-25T20:21:48.020Z,39.72
2017-12-25T20:24:15.016Z,30.65
2017-12-25T20:26:42.099Z,34.00
2017-12-25T20:29:09.030Z,34.25
2017-12-25T20:31:35.995Z,31.27
2017-12-25T20:34:28.079Z,34.55
2017-12-25T20:37:24.160Z,31.60
2017-12-25T20:39:51.332Z,30.80
2017-12-25T20:42:19.402Z,29.30
2017-12-25T20:44:47.111Z,31.67
2017-12-25T20:47:14.164Z,26.55
2017-12-25T20:49:50.193Z,27.83
2017-12-25T20:52:17.175Z,27.98
2017-12-25T20:54:44.129Z,26.40
2017-12-25T20:57:11.899Z,35.60
2017-12-25T20:59:38.798Z,35.67
2017-12-25T21:02:05.811Z,43.60
2017-12-25T21:04:39.251Z,44.55
2017-12-25T21:20:36.002Z,38.92
2017-12-25T21:23:03.579Z,43.95
2017-12-25T21:25:31.719Z,46.45
2017-12-25T21:27:59.263Z,38.60
2017-12-25T21:30:26.251Z,44.38
2017-12-25T21:32:53.290Z,46.80
2017-12-25T21:35:20.259Z,41.10
2017-12-25T21:37:47.190Z,53.25
2017-12-25T21:40:15.549Z,58.28
2017-12-25T21:42:42.587Z,56.35
2017-12-25T21:45:09.503Z,57.30
2017-12-25T21:47:36.458Z,52.97
2017-12-25T21:50:03.356Z,59.70
2017-12-25T21:52:30.370Z,59.25
2017-12-25T21:54:57.363Z,53.75
2017-12-25T21:57:24.302Z,57.08
2017-12-25T21:59:51.391Z,51.72
2017-12-25T22:02:18.456Z,52.53
2017-12-25T22:04:45.579Z,54.25
2017-12-25T22:07:12.479Z,48.97
2017-12-25T22:09:39.669Z,46.58
2017-12-25T22:12:06.743Z,49.25
2017-12-25T22:14:33.634Z,51.78
2017-12-25T22:17:00.721Z,47.17
2017-12-25T22:19:27.706Z,50.12
2017-12-25T22:21:54.757Z,46.95
2017-12-25T22:24:21.706Z,48.87
2017-12-25T22:26:50.036Z,50.95
2017-12-25T22:29:17.051Z,51.10
2017-12-25T22:31:44.118Z,50.00
2017-12-25T22:34:11.131Z,50.65
2017-12-25T22:36:40.011Z,46.35
2017-12-25T22:39:07.103Z,46.67
2017-12-25T22:41:34.114Z,47.45
2017-12-25T22:44:01.132Z,44.17
2017-12-25T22:46:28.041Z,47.17
2017-12-25T22:48:55.259Z,47.10
2017-12-25T22:51:22.270Z,47.08
2017-12-25T22:53:49.127Z,40.47
2017-12-25T22:56:16.266Z,40.75
2017-12-25T22:58:43.347Z,36.75
2017-12-25T23:01:10.802Z,41.65
2017-12-25T23:03:37.708Z,41.92
2017-12-25T23:06:04.522Z,38.15
2017-12-25T23:08:32.572Z,38.78
2017-12-25T23:11:02.463Z,39.95
2017-12-25T23:13:29.519Z,39.78
2017-12-25T23:15:56.742Z,42.65
2017-12-25T23:18:23.827Z,40.25
2017-12-25T23:20:50.782Z,38.45
2017-12-25T23:23:18.023Z,40.78
2017-12-25T23:25:45.242Z,41.25
2017-12-25T23:28:13.429Z,43.10
2017-12-25T23:30:40.586Z,30.98
2017-12-25T23:33:07.584Z,41.25
2017-12-25T23:35:35.487Z,39.88
2017-12-25T23:38:04.103Z,47.17
2017-12-25T23:40:31.210Z,49.90
2017-12-25T23:42:58.288Z,50.40
2017-12-25T23:45:25.334Z,46.65
2017-12-25T23:47:53.278Z,52.85
2017-12-25T23:50:21.307Z,41.05
2017-12-25T23:52:48.257Z,47.58
2017-12-25T23:55:16.274Z,48.75
2017-12-25T23:57:43.471Z,42.25
